createdAt,value
2022-11-20T00:02:24.000Z,14.89
2022-11-20T00:07:25.000Z,14.45
2022-11-20T00:12:24.000Z,15
2022-11-20T00:17:25.000Z,14.89
2022-11-20T00:22:24.000Z,15.85
2022-11-20T00:27:24.000Z,15.17
2022-11-20T00:32:25.000Z,14.49
2022-11-20T00:37:24.000Z,13.93
2022-11-20T00:42:24.000Z,15.09
2022-11-20T00:47:24.000Z,15.56
2022-11-20T00:52:24.000Z,15.05
2022-11-20T00:57:24.000Z,15.2
2022-11-20T01:02:24.000Z,15.13
2022-11-20T01:07:25.000Z,14.16
2022-11-20T01:12:24.000Z,15.26
2022-11-20T01:17:24.000Z,14.77
2022-11-20T01:22:25.000Z,15.89
2022-11-20T01:27:25.000Z,15.41
2022-11-20T01:32:24.000Z,15.79
2022-11-20T01:37:25.000Z,13.38
2022-11-20T01:42:24.000Z,14.95
2022-11-20T01:47:25.000Z,14.85
2022-11-20T01:52:24.000Z,15.54
2022-11-20T01:57:25.000Z,17
2022-11-20T02:02:24.000Z,15.92
2022-11-20T02:07:24.000Z,16.65
2022-11-20T02:12:24.000Z,16.31
2022-11-20T02:17:24.000Z,15.96
2022-11-20T02:22:24.000Z,16.32
2022-11-20T02:27:25.000Z,15.56
2022-11-20T02:32:24.000Z,15.39
2022-11-20T02:37:25.000Z,15.29
2022-11-20T02:42:24.000Z,15.83
2022-11-20T02:47:24.000Z,14.15
2022-11-20T02:52:24.000Z,14.51
2022-11-20T02:57:24.000Z,14.74
2022-11-20T03:02:24.000Z,15.25
2022-11-20T03:07:25.000Z,14.19
2022-11-20T03:12:24.000Z,14.2
2022-11-20T03:17:24.000Z,14.5
2022-11-20T03:22:24.000Z,14.36
2022-11-20T03:27:25.000Z,14.18
2022-11-20T03:32:24.000Z,13.54
2022-11-20T03:37:24.000Z,14.51
2022-11-20T03:42:25.000Z,14.52
2022-11-20T03:47:24.000Z,15.1
2022-11-20T03:52:25.000Z,15.43
2022-11-20T03:57:25.000Z,15.97
2022-11-20T04:02:25.000Z,15.51
2022-11-20T04:07:24.000Z,14.78
2022-11-20T04:12:24.000Z,14.94
2022-11-20T04:17:24.000Z,15.39
2022-11-20T04:22:24.000Z,14.51
2022-11-20T04:27:25.000Z,14.28
2022-11-20T04:32:24.000Z,13.51
2022-11-20T04:37:24.000Z,14.04
2022-11-20T04:42:25.000Z,14.49
2022-11-20T04:47:24.000Z,14.12
2022-11-20T04:52:24.000Z,12.98
2022-11-20T04:57:25.000Z,13.86
2022-11-20T05:02:25.000Z,14.46
2022-11-20T05:07:24.000Z,14.39
2022-11-20T05:12:25.000Z,14.68
2022-11-20T05:17:25.000Z,14.54
2022-11-20T05:22:25.000Z,15.02
2022-11-20T05:27:24.000Z,14.86
2022-11-20T05:32:24.000Z,14.48
2022-11-20T05:37:24.000Z,15.33
2022-11-20T05:42:24.000Z,15.39
2022-11-20T05:47:24.000Z,15.2
2022-11-20T05:52:24.000Z,16.23
2022-11-20T05:57:25.000Z,17.04
2022-11-20T06:02:25.000Z,14.88
2022-11-20T06:07:24.000Z,15.28
2022-11-20T06:12:24.000Z,15.25
2022-11-20T06:17:24.000Z,16
2022-11-20T06:22:24.000Z,15.5
2022-11-20T06:27:24.000Z,15.77
2022-11-20T06:32:24.000Z,16.49
2022-11-20T06:37:25.000Z,17.28
2022-11-20T06:42:25.000Z,17.96
2022-11-20T06:47:24.000Z,17.95
2022-11-20T06:52:25.000Z,20.98
2022-11-20T06:57:24.000Z,25.58
2022-11-20T07:02:24.000Z,23.57
2022-11-20T07:07:24.000Z,23.57
2022-11-20T07:12:24.000Z,17.59
2022-11-20T07:17:25.000Z,17.52
2022-11-20T07:22:24.000Z,18.1
2022-11-20T07:27:24.000Z,17
2022-11-20T07:32:24.000Z,18.03
2022-11-20T07:37:24.000Z,18.89
2022-11-20T07:42:25.000Z,16.92
2022-11-20T07:47:25.000Z,16.15
2022-11-20T07:52:24.000Z,17.08
2022-11-20T07:57:25.000Z,17.57
2022-11-20T08:02:24.000Z,16.67
2022-11-20T08:07:24.000Z,16.95
2022-11-20T08:12:24.000Z,16.75
2022-11-20T08:17:24.000Z,17.66
2022-11-20T08:22:25.000Z,16.9
2022-11-20T08:27:24.000Z,16.85
2022-11-20T08:32:25.000Z,18.17
2022-11-20T08:37:24.000Z,18.29
2022-11-20T08:42:25.000Z,18.49
2022-11-20T08:47:24.000Z,18.36
2022-11-20T08:52:24.000Z,17.9
2022-11-20T08:57:25.000Z,17.42
2022-11-20T09:02:24.000Z,17.98
2022-11-20T09:07:24.000Z,18.57
2022-11-20T09:12:25.000Z,18.17
2022-11-20T09:17:25.000Z,18.56
2022-11-20T09:22:24.000Z,19.58
2022-11-20T09:27:24.000Z,18.27
2022-11-20T09:32:24.000Z,18.22
2022-11-20T09:37:24.000Z,18.53
2022-11-20T09:42:25.000Z,18.4
2022-11-20T09:47:25.000Z,19.36
2022-11-20T09:52:24.000Z,19.56
2022-11-20T09:57:24.000Z,19.16
2022-11-20T10:02:24.000Z,19.16
2022-11-20T10:07:24.000Z,19.02
2022-11-20T10:12:24.000Z,20.39
2022-11-20T10:17:24.000Z,19.91
2022-11-20T10:22:25.000Z,19.86
2022-11-20T10:27:25.000Z,19.68
2022-11-20T10:32:24.000Z,21.19
2022-11-20T10:37:25.000Z,21.12
2022-11-20T10:42:24.000Z,21.83
2022-11-20T10:47:24.000Z,20.77
2022-11-20T10:52:25.000Z,23.38
2022-11-20T10:57:24.000Z,23.03
2022-11-20T11:02:24.000Z,22.94
2022-11-20T11:07:24.000Z,24.3
2022-11-20T11:12:24.000Z,24.88
2022-11-20T11:17:25.000Z,25.1
2022-11-20T11:22:24.000Z,26.06
2022-11-20T11:27:24.000Z,26.22
2022-11-20T11:32:24.000Z,26.9
2022-11-20T11:37:24.000Z,28.17
2022-11-20T11:42:25.000Z,28.96
2022-11-20T11:47:24.000Z,29.65
2022-11-20T11:52:24.000Z,32.88
2022-11-20T11:57:25.000Z,33.61
2022-11-20T12:02:25.000Z,34.91
2022-11-20T12:07:24.000Z,35.79
2022-11-20T12:12:25.000Z,38.14
2022-11-20T12:17:25.000Z,38.86
2022-11-20T12:22:24.000Z,37.14
2022-11-20T12:27:24.000Z,34.97
2022-11-20T12:32:24.000Z,36.53
2022-11-20T12:37:24.000Z,41.37
2022-11-20T12:42:24.000Z,39.41
2022-11-20T12:47:24.000Z,38.39
2022-11-20T12:52:24.000Z,40.2
2022-11-20T12:57:24.000Z,38.47
2022-11-20T13:02:24.000Z,39.61
2022-11-20T13:07:25.000Z,39.97
2022-11-20T13:12:24.000Z,41.04
2022-11-20T13:17:24.000Z,39.9
2022-11-20T13:22:24.000Z,41.82
2022-11-20T13:27:24.000Z,42.84
2022-11-20T13:32:25.000Z,44.34
2022-11-20T13:37:25.000Z,41.04
2022-11-20T13:42:24.000Z,39.76
2022-11-20T13:47:25.000Z,37.66
2022-11-20T13:52:24.000Z,37.21
2022-11-20T13:57:24.000Z,36.75
2022-11-20T14:02:25.000Z,37.99
2022-11-20T14:07:25.000Z,36.43
2022-11-20T14:12:24.000Z,39.93
2022-11-20T14:17:24.000Z,37.46
2022-11-20T14:22:24.000Z,40.12
2022-11-20T14:27:25.000Z,40.99
2022-11-20T14:32:24.000Z,39.66
2022-11-20T14:37:25.000Z,39.36
2022-11-20T14:42:25.000Z,39.8
2022-11-20T14:47:24.000Z,41.39
2022-11-20T14:52:25.000Z,42.39
2022-11-20T14:57:24.000Z,44.23
2022-11-20T15:02:24.000Z,44.79
2022-11-20T15:07:24.000Z,44.3
2022-11-20T15:12:24.000Z,44.07
2022-11-20T15:17:25.000Z,46.78
2022-11-20T15:22:25.000Z,45.86
2022-11-20T15:27:24.000Z,43.25
2022-11-20T15:32:24.000Z,41.07
2022-11-20T15:37:24.000Z,42.56
2022-11-20T15:42:25.000Z,42.88
2022-11-20T15:47:24.000Z,42.28
2022-11-20T15:52:24.000Z,44.25
2022-11-20T15:57:25.000Z,43.71
2022-11-20T16:02:25.000Z,44.74
2022-11-20T16:07:24.000Z,45.35
2022-11-20T16:12:25.000Z,52.34
2022-11-20T16:17:24.000Z,46.48
2022-11-20T16:22:24.000Z,46.5
2022-11-20T16:27:24.000Z,47.08
2022-11-20T16:32:24.000Z,44.98
2022-11-20T16:37:24.000Z,48.52
2022-11-20T16:42:25.000Z,46.64
2022-11-20T16:47:24.000Z,46.13
2022-11-20T16:52:24.000Z,47.03
2022-11-20T16:57:25.000Z,48.68
2022-11-20T17:02:25.000Z,52.05
2022-11-20T17:07:24.000Z,51.55
2022-11-20T17:12:24.000Z,56.76
2022-11-20T17:17:24.000Z,99.34
2022-11-20T17:22:25.000Z,86.82
2022-11-20T17:27:24.000Z,95.18
2022-11-20T17:32:25.000Z,53.29
2022-11-20T17:37:24.000Z,48.84
2022-11-20T17:42:24.000Z,50.24
2022-11-20T17:47:24.000Z,48.8
2022-11-20T17:52:24.000Z,44.24
2022-11-20T17:57:24.000Z,42.79
2022-11-20T18:02:24.000Z,41.81
2022-11-20T18:07:24.000Z,42.01
2022-11-20T18:12:24.000Z,41.79
2022-11-20T18:17:25.000Z,42.01
2022-11-20T18:22:25.000Z,44.04
2022-11-20T18:27:25.000Z,44.33
2022-11-20T18:32:25.000Z,45.59
2022-11-20T18:37:24.000Z,47.09
2022-11-20T18:47:25.000Z,46.68
2022-11-20T18:52:24.000Z,48.85
2022-11-20T18:57:25.000Z,48.93
2022-11-20T19:02:24.000Z,50.45
2022-11-20T19:07:24.000Z,46.26
2022-11-20T19:12:25.000Z,44.19
2022-11-20T19:17:24.000Z,44.37
2022-11-20T19:22:24.000Z,44.49
2022-11-20T19:27:25.000Z,45.6
2022-11-20T19:32:24.000Z,45.78
2022-11-20T19:37:25.000Z,45.57
2022-11-20T19:42:25.000Z,47.77
2022-11-20T19:47:24.000Z,48.62
2022-11-20T19:52:24.000Z,44.26
2022-11-20T19:57:24.000Z,42.83
2022-11-20T20:02:24.000Z,39.35
2022-11-20T20:07:25.000Z,41.52
2022-11-20T20:12:24.000Z,39.31
2022-11-20T20:17:24.000Z,38.61
2022-11-20T20:22:25.000Z,38.27
2022-11-20T20:27:25.000Z,37.08
2022-11-20T20:32:25.000Z,37.28
2022-11-20T20:37:24.000Z,36.52
2022-11-20T20:42:24.000Z,35.13
2022-11-20T20:47:24.000Z,34.92
2022-11-20T20:52:24.000Z,34.16
2022-11-20T20:57:24.000Z,33.71
2022-11-20T21:02:24.000Z,33.82
2022-11-20T21:07:24.000Z,33.42
2022-11-20T21:12:24.000Z,33.91
2022-11-20T21:17:24.000Z,37.09
2022-11-20T21:22:25.000Z,35.02
2022-11-20T21:27:24.000Z,36.48
2022-11-20T21:32:25.000Z,36.49
2022-11-20T21:37:24.000Z,32.98
2022-11-20T21:42:24.000Z,35.27
2022-11-20T21:47:25.000Z,42.72
2022-11-20T21:52:24.000Z,41.81
2022-11-20T21:57:25.000Z,35.64
2022-11-20T22:02:25.000Z,37.05
2022-11-20T22:07:24.000Z,37.89
2022-11-20T22:12:24.000Z,37.66
2022-11-20T22:17:24.000Z,32.13
2022-11-20T22:22:24.000Z,27.96
2022-11-20T22:27:24.000Z,28.99
2022-11-20T22:32:24.000Z,27.29
2022-11-20T22:37:24.000Z,27.18
2022-11-20T22:42:24.000Z,26.9
2022-11-20T22:47:24.000Z,25.82
2022-11-20T22:52:24.000Z,26.1
2022-11-20T22:57:24.000Z,25.63
2022-11-20T23:02:25.000Z,25.54
2022-11-20T23:07:25.000Z,26.2
2022-11-20T23:12:24.000Z,25.21
2022-11-20T23:17:24.000Z,24.14
2022-11-20T23:22:24.000Z,25.94
2022-11-20T23:27:24.000Z,25.3
2022-11-20T23:32:25.000Z,22.79
2022-11-20T23:37:24.000Z,23.25
2022-11-20T23:42:25.000Z,22.01
2022-11-20T23:47:25.000Z,22.25
2022-11-20T23:52:24.000Z,21.58
2022-11-20T23:57:25.000Z,22.29
